Time;durP1;ratioP1;P1;durP2;ratioP2;P2;SDS_P1;SDS_P2;PMS_P1;PMS_P2;Temp;Humidity;BMP_temperature;BMP_pressure;BME280_temperature;BME280_humidity;BME280_pressure;Samples;Min_cycle;Max_cycle;Signal;HPM_P1;HPM_P2
2022/08/24 00:01:18;;;;;;;;;;;22.00;99.90;;;;;;5080412;28;19935;-71
2022/08/24 00:03:44;;;;;;;;;;;21.90;99.90;;;;;;5078276;28;20361;-71
2022/08/24 00:06:12;;;;;;;;;;;21.90;99.90;;;;;;5081879;28;19912;-70
2022/08/24 00:08:38;;;;;;;;;;;22.00;99.90;;;;;;5082013;28;20340;-71
2022/08/24 00:11:04;;;;;;;;;;;22.00;99.90;;;;;;5084484;28;19960;-72
2022/08/24 00:13:29;;;;;;;;;;;22.00;99.90;;;;;;5081137;28;20360;-72
2022/08/24 00:15:55;;;;;;;;;;;21.70;99.90;;;;;;5071174;28;19912;-70
2022/08/24 00:18:21;;;;;;;;;;;21.70;99.90;;;;;;5076694;28;19923;-71
2022/08/24 00:20:47;;;;;;;;;;;21.70;99.90;;;;;;5074573;28;20411;-70
2022/08/24 00:23:13;;;;;;;;;;;21.60;99.90;;;;;;5078441;28;19920;-70
2022/08/24 00:25:38;;;;;;;;;;;21.50;99.90;;;;;;5071856;28;19916;-71
2022/08/24 00:28:04;;;;;;;;;;;21.50;99.90;;;;;;5080944;28;19920;-71
2022/08/24 00:30:30;;;;;;;;;;;21.60;99.90;;;;;;5070755;28;19912;-70
2022/08/24 00:32:57;;;;;;;;;;;21.70;99.90;;;;;;5080357;28;19916;-73
2022/08/24 00:35:23;;;;;;;;;;;21.60;99.90;;;;;;5078902;28;20146;-74
2022/08/24 00:37:49;;;;;;;;;;;21.50;99.90;;;;;;5072469;28;19916;-74
2022/08/24 00:40:26;;;;;;;;;;;21.50;99.90;;;;;;5077880;28;19926;-74
2022/08/24 00:42:52;;;;;;;;;;;21.40;99.90;;;;;;5073404;28;19912;-71
2022/08/24 00:45:18;;;;;;;;;;;21.50;99.90;;;;;;5075107;28;20392;-70
2022/08/24 00:47:49;;;;;;;;;;;21.60;99.90;;;;;;5075726;28;19978;-71
2022/08/24 00:50:22;;;;;;;;;;;21.50;99.90;;;;;;5081180;28;19979;-71
2022/08/24 00:52:50;;;;;;;;;;;21.50;99.90;;;;;;5080726;28;20366;-71
2022/08/24 00:55:18;;;;;;;;;;;21.50;99.90;;;;;;5059095;28;20249;-72
2022/08/24 00:57:45;;;;;;;;;;;21.60;99.90;;;;;;5077356;28;20014;-71
2022/08/24 01:00:16;;;;;;;;;;;21.60;99.90;;;;;;5076800;28;19976;-72
2022/08/24 01:02:44;;;;;;;;;;;21.60;99.90;;;;;;5072345;28;19913;-72
2022/08/24 01:05:11;;;;;;;;;;;21.40;99.90;;;;;;5073498;28;19965;-71
2022/08/24 01:07:38;;;;;;;;;;;21.40;99.90;;;;;;5069168;28;19931;-71
2022/08/24 01:10:06;;;;;;;;;;;21.30;99.90;;;;;;5064610;28;19925;-70
2022/08/24 01:12:33;;;;;;;;;;;21.20;99.90;;;;;;5072567;28;19913;-71
2022/08/24 01:14:59;;;;;;;;;;;21.20;99.90;;;;;;5082228;28;19912;-71
2022/08/24 01:20:10;;;;;;;;;;;21.30;99.90;;;;;;5077464;28;19950;-70
2022/08/24 01:22:42;;;;;;;;;;;21.20;99.90;;;;;;5080019;28;19941;-71
2022/08/24 01:25:08;;;;;;;;;;;21.10;99.90;;;;;;5075274;28;20009;-71
2022/08/24 01:27:35;;;;;;;;;;;21.20;99.90;;;;;;5076951;28;20713;-69
2022/08/24 01:30:03;;;;;;;;;;;21.20;99.90;;;;;;5079302;28;19930;-72
2022/08/24 01:32:29;;;;;;;;;;;21.20;99.90;;;;;;5072447;28;19920;-70
2022/08/24 01:34:55;;;;;;;;;;;21.20;99.90;;;;;;5074352;28;19920;-71
2022/08/24 01:37:21;;;;;;;;;;;21.20;99.90;;;;;;5070081;28;20441;-70
2022/08/24 01:39:48;;;;;;;;;;;21.10;99.90;;;;;;5074678;28;20318;-69
2022/08/24 01:42:14;;;;;;;;;;;20.90;99.90;;;;;;5079947;28;19934;-70
2022/08/24 01:44:40;;;;;;;;;;;20.90;99.90;;;;;;5075428;28;19912;-69
2022/08/24 01:47:07;;;;;;;;;;;21.00;99.90;;;;;;5076322;28;19913;-71
2022/08/24 01:49:35;;;;;;;;;;;21.10;99.90;;;;;;5079687;28;19927;-71
2022/08/24 01:52:01;;;;;;;;;;;21.20;99.90;;;;;;5077167;28;19919;-71
2022/08/24 01:54:27;;;;;;;;;;;21.30;99.90;;;;;;5078152;28;19912;-70
2022/08/24 01:56:52;;;;;;;;;;;21.30;99.90;;;;;;5075114;28;19972;-71
2022/08/24 01:59:19;;;;;;;;;;;21.20;99.90;;;;;;5072023;28;19986;-70
2022/08/24 02:01:47;;;;;;;;;;;21.20;99.90;;;;;;5075839;28;19916;-70
2022/08/24 02:04:14;;;;;;;;;;;21.20;99.90;;;;;;5071404;28;19995;-71
2022/08/24 02:06:39;;;;;;;;;;;21.30;99.90;;;;;;5073284;28;19989;-71
2022/08/24 02:09:05;;;;;;;;;;;21.20;99.90;;;;;;5072955;28;20350;-70
2022/08/24 02:11:30;;;;;;;;;;;21.20;99.90;;;;;;5077960;28;19920;-69
2022/08/24 02:13:56;;;;;;;;;;;21.20;99.90;;;;;;5072928;28;19912;-70
2022/08/24 02:16:22;;;;;;;;;;;21.20;99.90;;;;;;5075348;28;19912;-70
2022/08/24 02:18:48;;;;;;;;;;;21.20;99.90;;;;;;5075648;28;19966;-70
2022/08/24 02:21:15;;;;;;;;;;;21.20;99.90;;;;;;5063607;28;19912;-70
2022/08/24 02:23:41;;;;;;;;;;;21.20;99.90;;;;;;5075189;28;19924;-70
2022/08/24 02:26:08;;;;;;;;;;;21.20;99.90;;;;;;5077422;28;20443;-70
2022/08/24 02:28:36;;;;;;;;;;;21.30;99.90;;;;;;5075311;28;19990;-70
2022/08/24 02:31:04;;;;;;;;;;;21.20;99.90;;;;;;5074289;28;19997;-72
2022/08/24 02:33:30;;;;;;;;;;;21.30;99.90;;;;;;5073061;28;19934;-71
2022/08/24 02:35:56;;;;;;;;;;;21.30;99.90;;;;;;5077764;28;19924;-70
2022/08/24 02:38:22;;;;;;;;;;;21.40;99.90;;;;;;5071080;28;19924;-70
2022/08/24 02:40:48;;;;;;;;;;;21.50;99.90;;;;;;5074117;28;19969;-70
2022/08/24 02:43:13;;;;;;;;;;;21.50;99.90;;;;;;5075770;28;19912;-71
2022/08/24 02:45:40;;;;;;;;;;;21.50;99.90;;;;;;5079642;28;20504;-69
2022/08/24 02:48:06;;;;;;;;;;;21.60;99.90;;;;;;5076980;28;20701;-70
2022/08/24 02:50:31;;;;;;;;;;;21.60;99.90;;;;;;5076077;28;19994;-71
2022/08/24 02:52:57;;;;;;;;;;;21.50;99.90;;;;;;5073866;28;19923;-71
2022/08/24 02:55:23;;;;;;;;;;;21.50;99.90;;;;;;5078603;28;19935;-71
2022/08/24 02:57:49;;;;;;;;;;;21.50;99.90;;;;;;5073002;28;20284;-72
2022/08/24 03:00:16;;;;;;;;;;;21.60;99.90;;;;;;5073303;28;19916;-69
2022/08/24 03:02:43;;;;;;;;;;;21.50;99.90;;;;;;5079181;28;20493;-72
2022/08/24 03:05:09;;;;;;;;;;;21.40;99.90;;;;;;5078329;28;19942;-72
2022/08/24 03:07:35;;;;;;;;;;;21.30;99.90;;;;;;5078041;28;19999;-70
2022/08/24 03:10:01;;;;;;;;;;;21.30;99.90;;;;;;5082613;28;20663;-69
2022/08/24 03:12:27;;;;;;;;;;;21.20;99.90;;;;;;5077873;28;19916;-71
2022/08/24 03:14:52;;;;;;;;;;;21.20;99.90;;;;;;5061171;28;19912;-70
2022/08/24 03:17:18;;;;;;;;;;;21.10;99.90;;;;;;5080420;28;19912;-70
2022/08/24 03:19:43;;;;;;;;;;;21.10;99.90;;;;;;5077589;28;19912;-70
2022/08/24 03:22:09;;;;;;;;;;;21.10;99.90;;;;;;5081261;28;19913;-70
2022/08/24 03:24:34;;;;;;;;;;;21.00;99.90;;;;;;5078210;28;19920;-68
2022/08/24 03:27:00;;;;;;;;;;;21.00;99.90;;;;;;5081295;28;19920;-70
2022/08/24 03:29:26;;;;;;;;;;;21.00;99.90;;;;;;5078592;28;19920;-70
2022/08/24 03:31:51;;;;;;;;;;;20.90;99.90;;;;;;5079365;28;20357;-70
2022/08/24 03:34:18;;;;;;;;;;;20.90;99.90;;;;;;5072394;28;19928;-69
2022/08/24 03:36:45;;;;;;;;;;;20.90;99.90;;;;;;5073957;28;19973;-70
2022/08/24 03:39:11;;;;;;;;;;;20.90;99.90;;;;;;5075379;28;20027;-72
2022/08/24 03:41:37;;;;;;;;;;;20.90;99.90;;;;;;5075537;28;20374;-70
2022/08/24 03:44:02;;;;;;;;;;;20.90;99.90;;;;;;5079489;28;20022;-71
2022/08/24 03:46:28;;;;;;;;;;;20.90;99.90;;;;;;5074012;28;19913;-71
2022/08/24 03:48:55;;;;;;;;;;;21.10;99.90;;;;;;5076477;28;19924;-71
2022/08/24 03:51:22;;;;;;;;;;;21.10;99.90;;;;;;5075396;28;20750;-71
2022/08/24 03:53:48;;;;;;;;;;;21.10;99.90;;;;;;5075067;28;19912;-71
2022/08/24 03:56:14;;;;;;;;;;;21.20;99.90;;;;;;5076547;28;20006;-72
2022/08/24 03:58:40;;;;;;;;;;;21.20;99.90;;;;;;5078099;28;20429;-71
2022/08/24 04:01:06;;;;;;;;;;;21.20;99.90;;;;;;5073730;28;19913;-70
2022/08/24 04:03:39;;;;;;;;;;;21.20;99.90;;;;;;5077528;28;19943;-70
2022/08/24 04:06:05;;;;;;;;;;;21.20;99.90;;;;;;5072975;28;20538;-72
2022/08/24 04:08:31;;;;;;;;;;;21.20;99.90;;;;;;5062437;28;19989;-70
2022/08/24 04:10:57;;;;;;;;;;;21.20;99.90;;;;;;5077631;28;20323;-70
2022/08/24 04:13:23;;;;;;;;;;;21.20;99.90;;;;;;5073740;28;19923;-70
2022/08/24 04:15:51;;;;;;;;;;;21.20;99.90;;;;;;5082199;28;19957;-70
2022/08/24 04:18:17;;;;;;;;;;;21.20;99.90;;;;;;5079236;28;19920;-72
2022/08/24 04:20:43;;;;;;;;;;;21.20;99.90;;;;;;5069926;28;19995;-71
2022/08/24 04:23:10;;;;;;;;;;;21.20;99.90;;;;;;5053171;28;19993;-69
2022/08/24 04:25:39;;;;;;;;;;;21.20;99.90;;;;;;5072401;28;19919;-69
2022/08/24 04:28:05;;;;;;;;;;;21.20;99.90;;;;;;5074515;28;19920;-70
2022/08/24 04:30:31;;;;;;;;;;;21.20;99.90;;;;;;5063158;28;19916;-70
2022/08/24 04:32:58;;;;;;;;;;;21.10;99.90;;;;;;5071638;28;19938;-70
2022/08/24 04:35:23;;;;;;;;;;;21.00;99.90;;;;;;5074728;28;19970;-70
2022/08/24 04:37:49;;;;;;;;;;;20.80;99.90;;;;;;5068997;28;19964;-70
2022/08/24 04:40:14;;;;;;;;;;;20.70;99.90;;;;;;5071869;28;20361;-70
2022/08/24 04:42:40;;;;;;;;;;;20.70;99.90;;;;;;5075553;28;20310;-70
2022/08/24 04:45:06;;;;;;;;;;;20.70;99.90;;;;;;5070493;28;19912;-71
2022/08/24 04:47:31;;;;;;;;;;;20.80;99.90;;;;;;5072459;28;19916;-70
2022/08/24 04:49:57;;;;;;;;;;;20.70;99.90;;;;;;5070223;28;20003;-72
2022/08/24 04:52:23;;;;;;;;;;;20.70;99.90;;;;;;5071396;28;19999;-70
2022/08/24 04:54:49;;;;;;;;;;;20.70;99.90;;;;;;5074663;28;19970;-71
2022/08/24 04:57:14;;;;;;;;;;;20.80;99.90;;;;;;5071127;28;20473;-71
2022/08/24 04:59:40;;;;;;;;;;;20.80;99.90;;;;;;5069624;28;19922;-70
2022/08/24 05:02:06;;;;;;;;;;;20.80;99.90;;;;;;5077260;28;19961;-73
2022/08/24 05:04:31;;;;;;;;;;;20.70;99.90;;;;;;5061030;28;19916;-71
2022/08/24 05:06:57;;;;;;;;;;;20.70;99.90;;;;;;5063978;28;20018;-70
2022/08/24 05:09:22;;;;;;;;;;;20.70;99.90;;;;;;5071745;28;19973;-70
2022/08/24 05:11:48;;;;;;;;;;;20.70;99.90;;;;;;5078563;28;19938;-69
2022/08/24 05:14:14;;;;;;;;;;;20.70;99.90;;;;;;5073603;28;19920;-70
2022/08/24 05:16:39;;;;;;;;;;;20.70;99.90;;;;;;5080976;28;20325;-70
2022/08/24 05:19:06;;;;;;;;;;;20.60;99.90;;;;;;5077128;28;20312;-70
2022/08/24 05:21:31;;;;;;;;;;;20.50;99.90;;;;;;5075115;28;19951;-71
2022/08/24 05:23:57;;;;;;;;;;;20.50;99.90;;;;;;5078001;28;19951;-69
2022/08/24 05:26:24;;;;;;;;;;;20.60;99.90;;;;;;5061523;28;19919;-70
2022/08/24 05:28:54;;;;;;;;;;;20.60;99.90;;;;;;5060919;28;19924;-70
2022/08/24 05:31:20;;;;;;;;;;;20.60;99.90;;;;;;5074176;28;19912;-71
2022/08/24 05:33:47;;;;;;;;;;;20.70;99.90;;;;;;5061581;28;19966;-70
2022/08/24 05:36:21;;;;;;;;;;;20.80;99.90;;;;;;5075442;28;20030;-70
2022/08/24 05:38:47;;;;;;;;;;;20.80;99.90;;;;;;5077047;28;19912;-69
2022/08/24 05:41:13;;;;;;;;;;;20.80;99.90;;;;;;5071516;28;19923;-70
2022/08/24 05:43:38;;;;;;;;;;;20.90;99.90;;;;;;5070140;28;19912;-70
2022/08/24 05:46:04;;;;;;;;;;;21.00;99.90;;;;;;5054304;28;19966;-71
2022/08/24 05:48:30;;;;;;;;;;;21.10;99.90;;;;;;5069271;28;19927;-70
2022/08/24 05:50:56;;;;;;;;;;;21.20;99.90;;;;;;5073943;28;19955;-70
2022/08/24 05:53:22;;;;;;;;;;;21.20;99.90;;;;;;5068765;28;20057;-70
2022/08/24 05:55:48;;;;;;;;;;;21.30;99.90;;;;;;5074397;28;19920;-72
2022/08/24 05:58:13;;;;;;;;;;;21.30;99.90;;;;;;5068891;28;20340;-69
2022/08/24 06:00:39;;;;;;;;;;;21.40;99.90;;;;;;5061823;28;19924;-70
2022/08/24 06:03:04;;;;;;;;;;;21.40;99.90;;;;;;5073158;28;19921;-72
2022/08/24 06:05:30;;;;;;;;;;;21.30;99.90;;;;;;5070775;28;19912;-70
2022/08/24 06:07:56;;;;;;;;;;;21.20;99.90;;;;;;5073164;28;20373;-70
2022/08/24 06:10:21;;;;;;;;;;;21.20;99.90;;;;;;5071802;28;19931;-71
2022/08/24 06:12:47;;;;;;;;;;;21.30;99.90;;;;;;5071403;28;19920;-71
2022/08/24 06:15:13;;;;;;;;;;;21.40;99.90;;;;;;5074719;28;19966;-71
2022/08/24 06:17:38;;;;;;;;;;;21.40;99.90;;;;;;5075274;28;19919;-71
2022/08/24 06:20:06;;;;;;;;;;;21.40;99.90;;;;;;5076551;28;19915;-70
2022/08/24 06:22:32;;;;;;;;;;;21.50;99.90;;;;;;5057048;28;19986;-70
2022/08/24 06:27:42;;;;;;;;;;;21.60;99.90;;;;;;5069888;28;19919;-70
2022/08/24 06:30:08;;;;;;;;;;;21.60;99.90;;;;;;5075047;28;19912;-71
2022/08/24 06:32:38;;;;;;;;;;;21.60;99.90;;;;;;5057035;28;19924;-70
2022/08/24 06:35:04;;;;;;;;;;;21.50;99.90;;;;;;5075459;28;19928;-72
2022/08/24 06:37:29;;;;;;;;;;;21.50;99.90;;;;;;5079399;28;20021;-70
2022/08/24 06:39:56;;;;;;;;;;;21.60;99.90;;;;;;5078969;28;19912;-69
2022/08/24 06:42:23;;;;;;;;;;;21.70;99.90;;;;;;5069114;28;20615;-71
2022/08/24 06:44:49;;;;;;;;;;;21.80;99.90;;;;;;5076369;28;19920;-70
2022/08/24 06:47:15;;;;;;;;;;;21.90;99.90;;;;;;5070677;28;19939;-70
2022/08/24 06:49:41;;;;;;;;;;;22.10;99.90;;;;;;5072166;28;20308;-72
2022/08/24 06:52:07;;;;;;;;;;;22.30;99.90;;;;;;5076186;28;19916;-71
2022/08/24 06:54:32;;;;;;;;;;;22.20;99.90;;;;;;5075525;28;19912;-70
2022/08/24 06:56:58;;;;;;;;;;;22.20;99.90;;;;;;5077234;28;19916;-71
2022/08/24 06:59:27;;;;;;;;;;;22.20;99.90;;;;;;5076330;28;19912;-70
2022/08/24 07:01:54;;;;;;;;;;;22.20;99.90;;;;;;5073403;28;20362;-72
2022/08/24 07:04:20;;;;;;;;;;;22.20;99.90;;;;;;5078692;28;19967;-70
2022/08/24 07:06:46;;;;;;;;;;;22.30;99.90;;;;;;5076986;28;19999;-70
2022/08/24 07:09:11;;;;;;;;;;;22.30;99.90;;;;;;5080831;28;19973;-70
2022/08/24 07:11:37;;;;;;;;;;;22.40;99.90;;;;;;5078202;28;19924;-69
2022/08/24 07:14:03;;;;;;;;;;;22.20;99.90;;;;;;5075978;28;20254;-69
2022/08/24 07:16:29;;;;;;;;;;;22.20;99.90;;;;;;5078657;28;19919;-72
2022/08/24 07:18:55;;;;;;;;;;;22.30;99.90;;;;;;5079893;28;19992;-70
2022/08/24 07:21:21;;;;;;;;;;;22.40;99.90;;;;;;5081307;28;19931;-69
2022/08/24 07:23:48;;;;;;;;;;;22.10;99.90;;;;;;5077319;28;19920;-69
2022/08/24 07:26:18;;;;;;;;;;;21.90;99.90;;;;;;5076970;28;20023;-69
2022/08/24 07:28:43;;;;;;;;;;;21.90;99.90;;;;;;5076961;28;19920;-69
2022/08/24 07:31:11;;;;;;;;;;;22.20;99.90;;;;;;5072725;28;19939;-71
2022/08/24 07:33:36;;;;;;;;;;;22.30;99.90;;;;;;5078920;28;20018;-70
2022/08/24 07:36:02;;;;;;;;;;;22.40;99.90;;;;;;5076347;28;19930;-68
2022/08/24 07:38:28;;;;;;;;;;;22.60;99.90;;;;;;5070620;28;19916;-69
2022/08/24 07:40:53;;;;;;;;;;;22.60;99.90;;;;;;5076163;28;20026;-69
2022/08/24 07:43:19;;;;;;;;;;;22.30;99.90;;;;;;5073895;28;19913;-68
2022/08/24 07:45:46;;;;;;;;;;;22.20;99.90;;;;;;5078520;28;20014;-69
2022/08/24 07:48:12;;;;;;;;;;;22.50;99.90;;;;;;5077800;28;19928;-70
2022/08/24 07:50:37;;;;;;;;;;;22.70;99.90;;;;;;5066887;28;20321;-69
2022/08/24 07:53:03;;;;;;;;;;;22.60;99.90;;;;;;5070716;28;19920;-72
2022/08/24 07:55:28;;;;;;;;;;;22.60;99.90;;;;;;5073094;28;19912;-72
2022/08/24 07:57:54;;;;;;;;;;;22.60;99.90;;;;;;5081131;28;19951;-71
2022/08/24 08:00:20;;;;;;;;;;;22.60;99.90;;;;;;5072242;28;19912;-72
2022/08/24 08:02:46;;;;;;;;;;;22.70;99.90;;;;;;5075990;28;19920;-70
2022/08/24 08:05:13;;;;;;;;;;;22.70;99.90;;;;;;5057658;28;20262;-71
2022/08/24 08:07:39;;;;;;;;;;;22.70;99.90;;;;;;5074187;28;20063;-73
2022/08/24 08:10:04;;;;;;;;;;;22.60;99.90;;;;;;5076701;28;20090;-75
2022/08/24 08:12:30;;;;;;;;;;;22.40;99.90;;;;;;5064897;28;19916;-74
2022/08/24 08:14:56;;;;;;;;;;;22.30;99.90;;;;;;5081064;28;19965;-74
2022/08/24 08:17:22;;;;;;;;;;;22.30;99.90;;;;;;5079089;28;19916;-74
2022/08/24 08:19:47;;;;;;;;;;;22.30;99.90;;;;;;5059368;28;19919;-73
2022/08/24 08:24:57;;;;;;;;;;;22.40;99.90;;;;;;5079325;28;20001;-72
2022/08/24 08:27:24;;;;;;;;;;;22.50;99.90;;;;;;5077826;28;19924;-72
2022/08/24 08:29:50;;;;;;;;;;;22.70;99.90;;;;;;5074613;28;19924;-72
2022/08/24 08:32:16;;;;;;;;;;;22.70;99.90;;;;;;5075783;28;20246;-72
2022/08/24 08:34:45;;;;;;;;;;;22.60;99.90;;;;;;5077087;28;20013;-73
2022/08/24 08:37:11;;;;;;;;;;;22.60;99.90;;;;;;5076152;28;20701;-71
2022/08/24 08:39:37;;;;;;;;;;;22.50;99.90;;;;;;5056622;28;19979;-72
2022/08/24 08:42:12;;;;;;;;;;;22.60;99.90;;;;;;5080435;28;20389;-73
2022/08/24 08:44:57;;;;;;;;;;;22.60;99.90;;;;;;5075217;28;20009;-69
2022/08/24 08:47:37;;;;;;;;;;;22.70;99.90;;;;;;5070238;28;19916;-71
2022/08/24 08:50:05;;;;;;;;;;;22.60;99.90;;;;;;5072872;28;19939;-70
2022/08/24 08:52:50;;;;;;;;;;;22.60;99.90;;;;;;5053061;28;19917;-69
2022/08/24 08:55:25;;;;;;;;;;;22.70;99.90;;;;;;5077085;28;20351;-71
2022/08/24 08:58:06;;;;;;;;;;;22.90;99.90;;;;;;5074124;28;20280;-71
2022/08/24 09:00:37;;;;;;;;;;;23.20;99.90;;;;;;5068377;28;19970;-69
2022/08/24 09:03:32;;;;;;;;;;;23.60;99.90;;;;;;5074822;28;19916;-69
2022/08/24 09:06:11;;;;;;;;;;;24.00;99.90;;;;;;5027148;28;20420;-71
2022/08/24 09:08:48;;;;;;;;;;;24.20;99.90;;;;;;5074798;28;20568;-70
2022/08/24 09:11:32;;;;;;;;;;;24.40;99.90;;;;;;5067978;28;19912;-70
2022/08/24 09:13:58;;;;;;;;;;;24.40;99.90;;;;;;5075724;28;19924;-72
2022/08/24 09:16:44;;;;;;;;;;;24.30;99.90;;;;;;5072217;28;19976;-71
2022/08/24 09:19:13;;;;;;;;;;;24.40;99.90;;;;;;5070808;28;19920;-71
2022/08/24 09:21:48;;;;;;;;;;;24.20;99.90;;;;;;5071569;28;20212;-72
2022/08/24 09:24:33;;;;;;;;;;;23.80;99.90;;;;;;5076766;28;19951;-72
2022/08/24 09:27:15;;;;;;;;;;;23.70;99.90;;;;;;5072250;28;20230;-70
2022/08/24 09:29:46;;;;;;;;;;;23.90;99.90;;;;;;5072663;28;19927;-73
2022/08/24 09:32:24;;;;;;;;;;;23.70;99.90;;;;;;5072639;28;19920;-72
2022/08/24 09:35:00;;;;;;;;;;;23.60;99.90;;;;;;5072682;28;19927;-70
2022/08/24 09:37:40;;;;;;;;;;;23.70;99.90;;;;;;5073152;28;20504;-70
2022/08/24 09:40:21;;;;;;;;;;;23.60;99.90;;;;;;5062992;28;19998;-70
2022/08/24 09:43:13;;;;;;;;;;;23.70;99.90;;;;;;5070486;28;19916;-74
2022/08/24 09:45:39;;;;;;;;;;;23.80;99.90;;;;;;5068749;28;19916;-71
2022/08/24 09:48:29;;;;;;;;;;;23.90;99.90;;;;;;5077782;28;19985;-72
2022/08/24 09:51:15;;;;;;;;;;;23.90;99.90;;;;;;5076327;28;21033;-72
2022/08/24 09:53:59;;;;;;;;;;;24.00;99.90;;;;;;5074401;28;19912;-71
2022/08/24 09:56:37;;;;;;;;;;;24.20;99.90;;;;;;5076702;28;20262;-70
2022/08/24 09:59:12;;;;;;;;;;;24.10;99.90;;;;;;5073555;28;19916;-71
2022/08/24 10:01:43;;;;;;;;;;;23.80;99.90;;;;;;5072519;28;19958;-71
2022/08/24 10:04:10;;;;;;;;;;;23.80;99.90;;;;;;5068493;28;20395;-70
2022/08/24 10:06:52;;;;;;;;;;;23.80;99.90;;;;;;5060735;28;19917;-71
2022/08/24 10:09:23;;;;;;;;;;;24.00;99.90;;;;;;5074270;28;19962;-70
2022/08/24 10:11:56;;;;;;;;;;;24.10;99.90;;;;;;5070759;28;19996;-71
2022/08/24 10:14:28;;;;;;;;;;;24.00;99.90;;;;;;5071328;28;20011;-70
2022/08/24 10:17:14;;;;;;;;;;;24.10;99.90;;;;;;5071185;28;20398;-69
2022/08/24 10:20:06;;;;;;;;;;;24.40;99.90;;;;;;5073608;28;19916;-69
2022/08/24 10:22:40;;;;;;;;;;;25.00;99.90;;;;;;5033829;28;19919;-71
2022/08/24 10:25:21;;;;;;;;;;;25.10;99.90;;;;;;5070088;28;19912;-71
2022/08/24 10:27:59;;;;;;;;;;;25.20;99.90;;;;;;5077430;28;19913;-71
2022/08/24 10:30:43;;;;;;;;;;;25.00;99.90;;;;;;5082363;28;20354;-72
2022/08/24 10:33:16;;;;;;;;;;;25.00;99.90;;;;;;5081650;28;20338;-71
2022/08/24 10:35:44;;;;;;;;;;;24.70;99.90;;;;;;5078405;28;19960;-70
2022/08/24 10:41:16;;;;;;;;;;;24.40;99.90;;;;;;5080065;28;19919;-70
2022/08/24 10:43:59;;;;;;;;;;;24.10;99.90;;;;;;5076285;28;20001;-70
2022/08/24 10:46:37;;;;;;;;;;;23.90;99.90;;;;;;5082556;28;19916;-71
2022/08/24 10:49:21;;;;;;;;;;;23.80;99.90;;;;;;5079218;28;19927;-70
2022/08/24 10:51:49;;;;;;;;;;;23.70;99.90;;;;;;5082343;28;19999;-71
2022/08/24 10:54:17;;;;;;;;;;;23.80;99.90;;;;;;5077174;28;19918;-72
2022/08/24 10:56:52;;;;;;;;;;;23.70;99.90;;;;;;5051355;28;20419;-70
2022/08/24 10:59:34;;;;;;;;;;;23.40;99.90;;;;;;5077489;28;19923;-71
2022/08/24 11:02:08;;;;;;;;;;;23.40;99.90;;;;;;5080568;28;20258;-70
2022/08/24 11:04:35;;;;;;;;;;;23.70;99.90;;;;;;5085760;28;19923;-70
2022/08/24 11:07:17;;;;;;;;;;;24.00;99.90;;;;;;5088579;28;19920;-71
2022/08/24 11:09:50;;;;;;;;;;;24.20;99.90;;;;;;5082955;28;19935;-70
2022/08/24 11:12:25;;;;;;;;;;;24.30;99.90;;;;;;5084536;28;19912;-71
2022/08/24 11:14:55;;;;;;;;;;;24.50;99.90;;;;;;5085022;28;19932;-70
2022/08/24 11:17:22;;;;;;;;;;;24.50;99.90;;;;;;5080062;28;20013;-71
2022/08/24 11:19:49;;;;;;;;;;;24.40;99.90;;;;;;5087447;28;19955;-72
2022/08/24 11:22:36;;;;;;;;;;;24.40;99.90;;;;;;5087023;28;19965;-71
2022/08/24 11:25:12;;;;;;;;;;;24.70;99.90;;;;;;5082932;28;19912;-71
2022/08/24 11:27:45;;;;;;;;;;;24.70;99.90;;;;;;5085045;28;19950;-69
2022/08/24 11:30:21;;;;;;;;;;;24.90;99.90;;;;;;5065851;28;19925;-71
2022/08/24 11:32:57;;;;;;;;;;;25.10;99.90;;;;;;5079990;28;20658;-71
2022/08/24 11:35:27;;;;;;;;;;;25.10;99.90;;;;;;5085984;28;19920;-72
2022/08/24 11:37:54;;;;;;;;;;;24.90;99.90;;;;;;5084272;28;19919;-71
2022/08/24 11:40:28;;;;;;;;;;;24.90;99.90;;;;;;5066952;28;20290;-70
2022/08/24 11:43:14;;;;;;;;;;;25.00;99.90;;;;;;5074824;28;20026;-70
2022/08/24 11:45:43;;;;;;;;;;;25.30;99.90;;;;;;5074689;28;19920;-71
2022/08/24 11:48:34;;;;;;;;;;;25.30;99.90;;;;;;5078088;28;20036;-72
2022/08/24 11:51:00;;;;;;;;;;;25.20;99.90;;;;;;5076956;28;21141;-72
2022/08/24 11:53:35;;;;;;;;;;;25.20;99.90;;;;;;5076698;28;19920;-74
2022/08/24 11:56:10;;;;;;;;;;;24.80;99.90;;;;;;5073238;28;19912;-72
2022/08/24 11:58:48;;;;;;;;;;;24.60;99.90;;;;;;5074908;28;19927;-72
2022/08/24 12:01:17;;;;;;;;;;;24.50;99.90;;;;;;5078626;28;20459;-73
2022/08/24 12:04:01;;;;;;;;;;;24.80;99.90;;;;;;5080084;28;19920;-73
2022/08/24 12:06:30;;;;;;;;;;;25.00;99.90;;;;;;5078339;28;19916;-71
2022/08/24 12:08:58;;;;;;;;;;;25.20;99.90;;;;;;5076110;28;19920;-73
2022/08/24 12:11:26;;;;;;;;;;;25.30;99.90;;;;;;5077084;28;19932;-72
2022/08/24 12:14:08;;;;;;;;;;;25.50;99.90;;;;;;5075542;28;21031;-73
2022/08/24 12:16:46;;;;;;;;;;;25.50;99.90;;;;;;5066659;28;19912;-70
2022/08/24 12:19:18;;;;;;;;;;;25.70;99.90;;;;;;5083830;28;19912;-71
2022/08/24 12:21:45;;;;;;;;;;;25.90;99.90;;;;;;5080275;28;19919;-70
2022/08/24 12:24:13;;;;;;;;;;;26.20;99.90;;;;;;5076446;28;19923;-71
2022/08/24 12:26:39;;;;;;;;;;;26.60;99.90;;;;;;5083968;28;20080;-69
2022/08/24 12:29:05;;;;;;;;;;;26.90;99.90;;;;;;5087521;28;19928;-71
2022/08/24 12:31:36;;;;;;;;;;;26.90;98.30;;;;;;5084386;28;19975;-72
2022/08/24 12:34:07;;;;;;;;;;;26.80;96.20;;;;;;5076126;28;19912;-72
2022/08/24 12:36:37;;;;;;;;;;;26.50;93.90;;;;;;5078247;28;19916;-69
2022/08/24 12:39:06;;;;;;;;;;;26.50;92.60;;;;;;5064336;28;19924;-70
2022/08/24 12:41:35;;;;;;;;;;;26.60;91.70;;;;;;5073173;28;19912;-69
2022/08/24 12:44:04;;;;;;;;;;;26.70;91.80;;;;;;5074585;28;19920;-70
2022/08/24 12:46:30;;;;;;;;;;;26.60;91.70;;;;;;5076360;28;19947;-70
2022/08/24 12:48:59;;;;;;;;;;;26.50;91.40;;;;;;5045562;28;19986;-70
2022/08/24 12:51:43;;;;;;;;;;;26.40;91.20;;;;;;5067837;28;19985;-70
2022/08/24 12:54:27;;;;;;;;;;;26.30;90.40;;;;;;5072547;28;19912;-70
2022/08/24 12:57:11;;;;;;;;;;;26.30;93.20;;;;;;5060985;28;20005;-71
2022/08/24 12:59:48;;;;;;;;;;;26.40;91.60;;;;;;5058164;28;19968;-71
2022/08/24 13:02:13;;;;;;;;;;;26.60;90.50;;;;;;5076654;28;20015;-72
2022/08/24 13:04:43;;;;;;;;;;;26.60;90.10;;;;;;5074480;28;20046;-70
2022/08/24 13:07:13;;;;;;;;;;;26.70;90.60;;;;;;5078775;28;20006;-69
2022/08/24 13:09:43;;;;;;;;;;;26.70;90.80;;;;;;5074723;28;19956;-69
2022/08/24 13:12:27;;;;;;;;;;;26.60;91.60;;;;;;5081004;28;19919;-69
2022/08/24 13:15:13;;;;;;;;;;;26.50;91.30;;;;;;5073620;28;19946;-70
2022/08/24 13:17:40;;;;;;;;;;;26.50;91.10;;;;;;5074711;28;19916;-70
2022/08/24 13:20:24;;;;;;;;;;;26.60;90.60;;;;;;5072658;28;20007;-71
2022/08/24 13:23:08;;;;;;;;;;;26.60;91.40;;;;;;5074975;28;20393;-70
2022/08/24 13:25:37;;;;;;;;;;;26.60;91.80;;;;;;5069378;28;19919;-70
2022/08/24 13:28:05;;;;;;;;;;;26.60;90.30;;;;;;5073389;28;20033;-70
2022/08/24 13:30:34;;;;;;;;;;;26.70;90.30;;;;;;5064792;28;20505;-71
2022/08/24 13:33:04;;;;;;;;;;;26.50;91.30;;;;;;5073437;28;19960;-69
2022/08/24 13:35:39;;;;;;;;;;;26.50;91.50;;;;;;5063132;28;20349;-70
2022/08/24 13:38:24;;;;;;;;;;;26.60;90.90;;;;;;5044325;28;20366;-70
2022/08/24 13:40:55;;;;;;;;;;;26.60;88.60;;;;;;5043831;28;19913;-71
2022/08/24 13:43:34;;;;;;;;;;;26.80;87.70;;;;;;5041319;28;19913;-72
2022/08/24 13:46:10;;;;;;;;;;;26.70;86.80;;;;;;5046775;28;20083;-71
2022/08/24 13:48:52;;;;;;;;;;;26.60;87.60;;;;;;5046086;28;19972;-70
2022/08/24 13:51:23;;;;;;;;;;;26.60;85.70;;;;;;5044832;28;19927;-72
2022/08/24 13:54:07;;;;;;;;;;;26.60;86.70;;;;;;5043153;28;19913;-73
2022/08/24 13:56:45;;;;;;;;;;;26.70;87.00;;;;;;5043016;28;20236;-70
2022/08/24 13:59:10;;;;;;;;;;;26.90;84.90;;;;;;5040167;28;20289;-70
2022/08/24 14:01:54;;;;;;;;;;;26.70;85.90;;;;;;5048916;28;20325;-71
2022/08/24 14:04:23;;;;;;;;;;;26.60;87.90;;;;;;5044515;28;19924;-70
2022/08/24 14:06:58;;;;;;;;;;;26.60;88.30;;;;;;5040975;28;20346;-72
2022/08/24 14:09:42;;;;;;;;;;;26.80;88.00;;;;;;5045121;28;19975;-71
2022/08/24 14:12:07;;;;;;;;;;;26.70;86.90;;;;;;5042280;28;19933;-70
2022/08/24 14:14:42;;;;;;;;;;;26.60;88.50;;;;;;5047133;28;19917;-70
2022/08/24 14:19:55;;;;;;;;;;;26.60;88.60;;;;;;5041819;28;19924;-71
2022/08/24 14:22:27;;;;;;;;;;;26.50;89.00;;;;;;5048629;28;19958;-70
2022/08/24 14:25:11;;;;;;;;;;;26.50;88.80;;;;;;5045283;28;19920;-70
2022/08/24 14:27:36;;;;;;;;;;;26.70;89.40;;;;;;5045949;28;19913;-70
2022/08/24 14:30:17;;;;;;;;;;;26.70;86.90;;;;;;5043175;28;19931;-70
2022/08/24 14:33:02;;;;;;;;;;;26.50;88.10;;;;;;5048948;28;20441;-70
2022/08/24 14:35:35;;;;;;;;;;;26.60;88.60;;;;;;5070301;28;19924;-70
2022/08/24 14:38:03;;;;;;;;;;;26.50;87.10;;;;;;5086910;28;19928;-70
2022/08/24 14:40:33;;;;;;;;;;;26.60;88.00;;;;;;5079400;28;19970;-70
2022/08/24 14:43:02;;;;;;;;;;;26.50;86.60;;;;;;5084310;28;19912;-70
2022/08/24 14:45:46;;;;;;;;;;;26.40;86.90;;;;;;5076909;28;20005;-70